Time;durP1;ratioP1;P1;durP2;ratioP2;P2;SDS_P1;SDS_P2;PMS_P1;PMS_P2;Temp;Humidity;BMP_temperature;BMP_pressure;BME280_temperature;BME280_humidity;BME280_pressure;Samples;Min_cycle;Max_cycle;Signal;HPM_P1;HPM_P2
2022/11/02 00:00:20;;;;;;;5.60;1.27;;;12.80;99.90;;;;;;4740940;30;20413;-68
2022/11/02 00:02:45;;;;;;;4.55;0.75;;;12.80;99.90;;;;;;4770507;30;20056;-68
2022/11/02 00:05:12;;;;;;;5.30;0.80;;;12.80;99.90;;;;;;4770246;30;20064;-68
2022/11/02 00:07:39;;;;;;;5.72;0.80;;;12.90;99.90;;;;;;4770463;30;20163;-68
2022/11/02 00:10:05;;;;;;;6.25;0.95;;;12.90;99.90;;;;;;4770400;30;20060;-68
2022/11/02 00:12:30;;;;;;;6.63;0.82;;;12.80;99.90;;;;;;4758161;30;20052;-68
2022/11/02 00:14:56;;;;;;;4.43;0.70;;;12.80;99.90;;;;;;4758324;30;20469;-68
2022/11/02 00:17:22;;;;;;;4.63;0.80;;;12.80;99.90;;;;;;4758082;30;20063;-68
2022/11/02 00:19:48;;;;;;;3.47;0.60;;;12.80;99.90;;;;;;4773699;30;20048;-67
2022/11/02 00:22:14;;;;;;;4.35;0.70;;;12.80;99.90;;;;;;4773936;30;20058;-68
2022/11/02 00:24:40;;;;;;;4.47;1.25;;;12.80;99.90;;;;;;4774650;30;20055;-67
2022/11/02 00:27:05;;;;;;;4.05;0.68;;;12.80;99.90;;;;;;4774406;30;20189;-68
2022/11/02 00:29:33;;;;;;;5.07;1.02;;;12.80;99.90;;;;;;4773809;30;20404;-68
2022/11/02 00:31:59;;;;;;;2.47;0.60;;;12.80;99.90;;;;;;4757408;30;20058;-68
2022/11/02 00:34:24;;;;;;;3.08;0.70;;;12.80;99.90;;;;;;4757921;30;20064;-68
2022/11/02 00:36:51;;;;;;;3.38;0.55;;;12.80;99.90;;;;;;4773679;30;20098;-68
2022/11/02 00:39:16;;;;;;;2.30;0.77;;;12.80;99.90;;;;;;4774158;30;20047;-68
2022/11/02 00:41:42;;;;;;;1.33;0.40;;;12.70;99.90;;;;;;4757667;30;20068;-68
2022/11/02 00:44:08;;;;;;;2.08;0.50;;;12.70;99.90;;;;;;4773546;30;20173;-67
2022/11/02 00:46:33;;;;;;;5.20;0.93;;;12.70;99.90;;;;;;4774024;30;20052;-67
2022/11/02 00:48:59;;;;;;;3.47;0.60;;;12.70;99.90;;;;;;4773983;30;20055;-67
2022/11/02 00:51:25;;;;;;;1.38;0.50;;;12.70;99.90;;;;;;4773769;30;20052;-67
2022/11/02 00:53:50;;;;;;;4.10;0.60;;;12.70;99.90;;;;;;4757500;30;20122;-68
2022/11/02 00:56:16;;;;;;;7.45;0.93;;;12.70;99.90;;;;;;4773818;30;20048;-68
2022/11/02 00:58:42;;;;;;;4.47;0.70;;;12.70;99.90;;;;;;4773289;30;20059;-68
2022/11/02 01:01:08;;;;;;;4.75;0.70;;;12.70;99.90;;;;;;4757070;30;20083;-68
2022/11/02 01:03:33;;;;;;;2.95;0.60;;;12.70;99.90;;;;;;4773193;30;20062;-69
2022/11/02 01:06:07;;;;;;;4.03;0.70;;;12.60;99.90;;;;;;4757302;30;20488;-70
2022/11/02 01:08:33;;;;;;;1.85;0.45;;;12.40;99.90;;;;;;4773248;30;20048;-69
2022/11/02 01:11:11;;;;;;;2.63;0.38;;;12.30;99.90;;;;;;4757472;30;20067;-69
2022/11/02 01:13:36;;;;;;;2.83;0.60;;;12.10;99.90;;;;;;4742855;30;20069;-70
2022/11/02 01:16:03;;;;;;;3.42;0.50;;;12.00;99.90;;;;;;4773000;30;20048;-72
2022/11/02 01:18:29;;;;;;;2.85;0.40;;;11.80;99.90;;;;;;4757824;30;20194;-71
2022/11/02 01:20:56;;;;;;;1.73;0.40;;;11.80;99.90;;;;;;4756753;30;20143;-69
2022/11/02 01:23:22;;;;;;;5.20;0.60;;;11.70;99.90;;;;;;4772636;30;20067;-67
2022/11/02 01:25:47;;;;;;;1.45;0.20;;;11.80;99.90;;;;;;4757153;30;20047;-69
2022/11/02 01:28:13;;;;;;;2.40;0.75;;;11.60;99.90;;;;;;4773096;30;20494;-69
2022/11/02 01:30:39;;;;;;;2.72;0.40;;;11.40;99.90;;;;;;4772781;30;20409;-70
2022/11/02 01:33:05;;;;;;;3.22;0.40;;;11.30;99.90;;;;;;4772743;30;20055;-70
2022/11/02 01:35:31;;;;;;;0.95;0.40;;;11.30;99.90;;;;;;4757027;30;20059;-70
2022/11/02 01:37:57;;;;;;;2.75;0.40;;;11.20;99.90;;;;;;4772669;30;20058;-69
2022/11/02 01:40:22;;;;;;;3.35;0.50;;;11.10;99.90;;;;;;4756691;30;20185;-68
2022/11/02 01:42:48;;;;;;;3.35;0.40;;;11.10;99.90;;;;;;4757627;30;20052;-69
2022/11/02 01:45:14;;;;;;;3.50;0.50;;;11.30;99.90;;;;;;4772592;30;20133;-68
2022/11/02 01:47:44;;;;;;;3.67;0.52;;;11.20;99.90;;;;;;4772546;30;20079;-68
2022/11/02 01:50:22;;;;;;;4.72;0.75;;;11.20;99.90;;;;;;4772345;30;20056;-68
2022/11/02 01:52:48;;;;;;;0.80;0.40;;;11.00;99.90;;;;;;4756512;30;20052;-68
2022/11/02 01:55:18;;;;;;;1.90;0.50;;;11.10;99.90;;;;;;4741760;30;20062;-68
2022/11/02 01:57:47;;;;;;;3.35;0.50;;;11.00;99.90;;;;;;4772321;30;20055;-67
2022/11/02 02:00:15;;;;;;;2.22;0.50;;;11.10;99.90;;;;;;4772278;30;20136;-67
2022/11/02 02:03:05;;;;;;;2.92;0.60;;;11.10;99.90;;;;;;4772252;30;20051;-67
2022/11/02 02:05:33;;;;;;;3.63;0.85;;;11.10;99.90;;;;;;4772226;30;20476;-67
2022/11/02 02:08:01;;;;;;;6.28;1.10;;;11.30;99.90;;;;;;4756259;30;20055;-67
2022/11/02 02:10:26;;;;;;;3.97;0.85;;;11.10;99.90;;;;;;4757001;30;20064;-67
2022/11/02 02:12:52;;;;;;;5.22;1.23;;;11.10;99.90;;;;;;4772041;30;20136;-67
2022/11/02 02:15:24;;;;;;;3.85;0.93;;;11.00;99.90;;;;;;4756239;30;20113;-67
2022/11/02 02:18:01;;;;;;;4.90;0.90;;;11.10;99.90;;;;;;4772337;30;20048;-67
2022/11/02 02:20:52;;;;;;;5.63;1.05;;;11.10;99.90;;;;;;4772633;30;20389;-66
2022/11/02 02:23:53;;;;;;;4.68;1.13;;;11.10;99.90;;;;;;4744325;30;20146;-66
2022/11/02 02:26:34;;;;;;;8.18;1.20;;;11.10;99.90;;;;;;4772401;30;20055;-67
2022/11/02 02:29:34;;;;;;;6.40;1.05;;;11.10;99.90;;;;;;4771839;30;20056;-67
2022/11/02 02:32:46;;;;;;;9.82;1.35;;;11.20;99.90;;;;;;4772516;30;20385;-66
2022/11/02 02:35:20;;;;;;;4.13;1.15;;;11.20;99.90;;;;;;4768985;30;20415;-67
2022/11/02 02:37:53;;;;;;;7.97;1.30;;;11.20;99.90;;;;;;4772189;30;20052;-67
2022/11/02 02:40:39;;;;;;;7.45;1.25;;;11.20;99.90;;;;;;4771635;30;20054;-67
2022/11/02 02:43:28;;;;;;;8.70;1.48;;;11.20;99.90;;;;;;4772111;30;20055;-67
2022/11/02 02:46:00;;;;;;;6.70;1.40;;;11.20;99.90;;;;;;4772285;30;20062;-67
2022/11/02 02:48:26;;;;;;;7.30;1.40;;;11.20;99.90;;;;;;4756567;30;20100;-66
2022/11/02 02:51:04;;;;;;;6.65;1.20;;;11.30;99.90;;;;;;4771326;30;20048;-66
2022/11/02 02:53:51;;;;;;;8.32;1.70;;;11.30;99.90;;;;;;4771393;30;20139;-67
2022/11/02 02:56:20;;;;;;;5.95;1.00;;;11.30;99.90;;;;;;4771988;30;20138;-67
2022/11/02 02:59:05;;;;;;;5.93;1.40;;;11.30;99.90;;;;;;4755617;30;20068;-67
2022/11/02 03:01:32;;;;;;;6.50;1.27;;;11.40;99.90;;;;;;4771258;30;20134;-66
2022/11/02 03:03:58;;;;;;;6.15;1.10;;;11.30;99.90;;;;;;4771246;30;20109;-67
2022/11/02 03:06:29;;;;;;;5.30;1.30;;;11.40;99.90;;;;;;4740849;30;20049;-66
2022/11/02 03:09:31;;;;;;;3.25;0.80;;;11.30;99.90;;;;;;4771714;30;20423;-66
2022/11/02 03:12:00;;;;;;;6.78;1.30;;;11.40;99.90;;;;;;4771110;30;20044;-67
2022/11/02 03:14:38;;;;;;;4.47;0.95;;;11.40;99.90;;;;;;4771291;30;20397;-66
2022/11/02 03:17:15;;;;;;;3.08;1.00;;;11.30;99.90;;;;;;4771862;30;20205;-67
2022/11/02 03:19:56;;;;;;;7.20;0.90;;;11.40;99.90;;;;;;4771401;30;20138;-67
2022/11/02 03:22:34;;;;;;;4.80;1.15;;;11.40;99.90;;;;;;4771479;30;20062;-67
2022/11/02 03:25:17;;;;;;;3.53;0.70;;;11.40;99.90;;;;;;4770958;30;20119;-66
2022/11/02 03:27:42;;;;;;;;;;;11.30;99.90;;;;;;4771872;30;20064;-67
2022/11/02 03:30:16;;;;;;;2.13;0.60;;;11.30;99.90;;;;;;4770770;30;20010;-66
2022/11/02 03:32:51;;;;;;;3.85;0.70;;;11.30;99.90;;;;;;4770830;30;20127;-66
2022/11/02 03:35:43;;;;;;;3.08;0.70;;;11.70;99.90;;;;;;4770513;30;20493;-66
2022/11/02 03:38:18;;;;;;;3.72;1.10;;;11.30;99.90;;;;;;4758415;30;20107;-66
2022/11/02 03:40:47;;;;;;;2.95;0.60;;;11.20;99.90;;;;;;4770583;30;20490;-66
2022/11/02 03:43:15;;;;;;;2.80;0.50;;;11.30;99.90;;;;;;4770761;30;20065;-66
2022/11/02 03:45:46;;;;;;;2.75;0.65;;;11.20;99.90;;;;;;4770611;30;20516;-67
2022/11/02 03:48:13;;;;;;;4.63;0.70;;;11.20;99.90;;;;;;4755699;30;20132;-66
2022/11/02 03:50:44;;;;;;;4.13;0.70;;;11.40;99.90;;;;;;4770184;30;20524;-67
2022/11/02 03:53:15;;;;;;;4.65;0.70;;;11.30;99.90;;;;;;4770634;30;20056;-67
2022/11/02 03:55:48;;;;;;;2.92;0.60;;;11.10;99.90;;;;;;4770843;30;20052;-67
2022/11/02 03:58:13;;;;;;;1.63;0.55;;;11.10;99.90;;;;;;4755612;30;20089;-67
2022/11/02 04:00:54;;;;;;;6.18;0.75;;;11.40;99.90;;;;;;4770566;30;20043;-67
2022/11/02 04:03:22;;;;;;;5.40;0.60;;;11.10;99.90;;;;;;4755092;30;20500;-66
2022/11/02 04:05:48;;;;;;;3.30;0.60;;;11.00;99.90;;;;;;4771087;30;20095;-67
2022/11/02 04:08:21;;;;;;;4.63;0.60;;;11.10;99.90;;;;;;4754543;30;20168;-67
2022/11/02 04:16:18;;;;;;;2.65;0.40;;;11.00;99.90;;;;;;4770196;30;20592;-67
2022/11/02 04:21:28;;;;;;;3.65;0.50;;;11.00;99.90;;;;;;4770292;30;20105;-66
2022/11/02 04:26:39;;;;;;;4.10;0.90;;;11.00;99.90;;;;;;4770426;30;20060;-66
2022/11/02 04:29:04;;;;;;;3.22;0.40;;;11.30;99.90;;;;;;4770808;30;20052;-67
2022/11/02 04:31:30;;;;;;;6.72;0.80;;;11.00;99.90;;;;;;4770219;30;20113;-67
2022/11/02 04:33:58;;;;;;;8.00;0.60;;;11.00;99.90;;;;;;4754332;30;20104;-67
2022/11/02 04:36:24;;;;;;;3.10;0.60;;;11.20;99.90;;;;;;4754637;30;20493;-67
2022/11/02 04:38:50;;;;;;;3.80;0.60;;;10.90;99.90;;;;;;4754255;30;20381;-67
2022/11/02 04:44:03;;;;;;;2.45;0.47;;;10.90;99.90;;;;;;4770204;30;20546;-67
2022/11/02 04:46:31;;;;;;;5.25;0.45;;;11.30;99.90;;;;;;4770156;30;20048;-67
2022/11/02 04:48:57;;;;;;;3.53;0.60;;;11.00;99.90;;;;;;4754351;30;20051;-67
2022/11/02 04:51:24;;;;;;;4.43;0.77;;;11.00;99.90;;;;;;4770466;30;20484;-67
2022/11/02 04:53:52;;;;;;;5.38;0.65;;;11.00;99.90;;;;;;4770098;30;20063;-66
2022/11/02 04:56:18;;;;;;;2.60;0.60;;;11.00;99.90;;;;;;4770336;30;20056;-67
2022/11/02 04:58:47;;;;;;;4.93;0.60;;;11.00;99.90;;;;;;4773796;30;20112;-67
2022/11/02 05:01:16;;;;;;;5.25;0.70;;;11.00;99.90;;;;;;4772960;30;20497;-67
2022/11/02 05:03:42;;;;;;;4.65;0.80;;;11.10;99.90;;;;;;4757708;30;20068;-66
2022/11/02 05:06:09;;;;;;;3.38;0.60;;;11.10;99.90;;;;;;4773234;30;20378;-67
2022/11/02 05:08:35;;;;;;;4.95;0.77;;;11.00;99.90;;;;;;4773176;30;20048;-66
2022/11/02 05:11:01;;;;;;;6.88;0.68;;;11.00;99.90;;;;;;4773061;30;20054;-67
2022/11/02 05:13:27;;;;;;;4.35;0.82;;;11.40;99.90;;;;;;4773893;30;20481;-66
2022/11/02 05:15:57;;;;;;;3.58;0.60;;;11.10;99.90;;;;;;4742463;30;20055;-67
2022/11/02 05:18:23;;;;;;;5.60;0.70;;;10.90;99.90;;;;;;4757980;30;20135;-66
2022/11/02 05:20:54;;;;;;;4.15;0.70;;;11.00;99.90;;;;;;4772758;30;20071;-66
2022/11/02 05:23:21;;;;;;;2.35;0.60;;;11.00;99.90;;;;;;4757556;30;20060;-66
2022/11/02 05:25:57;;;;;;;5.43;1.02;;;11.10;99.90;;;;;;4757160;30;20052;-66
2022/11/02 05:28:24;;;;;;;3.42;1.10;;;11.10;99.90;;;;;;4773134;30;20397;-66
2022/11/02 05:30:50;;;;;;;4.65;0.88;;;11.10;99.90;;;;;;4773242;30;20051;-66
2022/11/02 05:33:16;;;;;;;4.72;0.80;;;11.10;99.90;;;;;;4772752;30;20055;-66
2022/11/02 05:35:42;;;;;;;3.95;0.98;;;11.00;99.90;;;;;;4772712;30;20489;-67
2022/11/02 05:38:08;;;;;;;5.57;0.95;;;11.10;99.90;;;;;;4772716;30;20547;-67
2022/11/02 05:40:36;;;;;;;5.78;1.13;;;11.00;99.90;;;;;;4756680;30;20067;-67
2022/11/02 05:43:03;;;;;;;6.35;1.10;;;11.40;99.90;;;;;;4756479;30;20138;-67
2022/11/02 05:45:29;;;;;;;7.07;1.00;;;11.00;99.90;;;;;;4772276;30;20130;-68
2022/11/02 05:47:55;;;;;;;5.63;1.00;;;11.00;99.90;;;;;;4772484;30;20482;-67
2022/11/02 05:50:21;;;;;;;4.18;0.77;;;11.30;99.90;;;;;;4772348;30;20166;-67
2022/11/02 05:52:47;;;;;;;6.65;0.90;;;11.00;99.90;;;;;;4773510;30;20139;-67
2022/11/02 05:55:13;;;;;;;6.85;0.95;;;10.90;99.90;;;;;;4772891;30;20130;-67
2022/11/02 05:57:39;;;;;;;5.10;1.02;;;10.90;99.90;;;;;;4772366;30;20052;-67
2022/11/02 06:00:06;;;;;;;7.90;1.10;;;10.90;99.90;;;;;;4772352;30;20063;-66
2022/11/02 06:02:35;;;;;;;8.77;1.10;;;10.90;99.90;;;;;;4756540;30;20055;-67
2022/11/02 06:05:00;;;;;;;5.35;1.10;;;11.30;99.90;;;;;;4772263;30;20051;-67
2022/11/02 06:07:26;;;;;;;5.95;0.90;;;10.90;99.90;;;;;;4771688;30;20058;-67
2022/11/02 06:09:52;;;;;;;4.80;0.80;;;10.90;99.90;;;;;;4771460;30;20113;-67
2022/11/02 06:12:17;;;;;;;6.05;0.90;;;10.90;99.90;;;;;;4772595;30;20457;-67
2022/11/02 06:14:43;;;;;;;5.75;1.35;;;10.90;99.90;;;;;;4756302;30;20047;-67
2022/11/02 06:17:09;;;;;;;5.13;1.00;;;10.90;99.90;;;;;;4772602;30;20052;-67
2022/11/02 06:19:34;;;;;;;6.43;1.10;;;10.90;99.90;;;;;;4772484;30;20054;-67
2022/11/02 06:22:00;;;;;;;5.20;1.17;;;11.10;99.90;;;;;;4771519;30;20562;-67
2022/11/02 06:24:25;;;;;;;6.03;0.90;;;11.10;99.90;;;;;;4755996;30;20055;-67
2022/11/02 06:26:51;;;;;;;4.82;1.05;;;10.90;99.90;;;;;;4756897;30;20052;-67
2022/11/02 06:29:17;;;;;;;7.10;0.80;;;10.90;99.90;;;;;;4755489;30;20146;-67
2022/11/02 06:31:43;;;;;;;6.55;1.38;;;10.90;99.90;;;;;;4741178;30;20095;-67
2022/11/02 06:34:08;;;;;;;7.25;1.10;;;10.90;99.90;;;;;;4755948;30;20066;-67
2022/11/02 06:36:34;;;;;;;5.53;0.93;;;10.90;99.90;;;;;;4771660;30;20055;-67
2022/11/02 06:39:00;;;;;;;5.45;1.00;;;10.90;99.90;;;;;;4771670;30;20051;-66
2022/11/02 06:41:26;;;;;;;6.60;0.93;;;10.90;99.90;;;;;;4772078;30;20043;-67
2022/11/02 06:43:51;;;;;;;4.55;1.00;;;11.10;99.90;;;;;;4772066;30;20051;-66
2022/11/02 06:46:17;;;;;;;4.70;1.00;;;10.90;99.90;;;;;;4755793;30;20051;-66
2022/11/02 06:48:46;;;;;;;5.03;0.85;;;11.00;99.90;;;;;;4771713;30;20135;-66
2022/11/02 06:51:11;;;;;;;7.47;1.20;;;11.00;99.90;;;;;;4771301;30;20052;-67
2022/11/02 06:53:37;;;;;;;6.63;0.80;;;11.20;99.90;;;;;;4755584;30;20053;-67
2022/11/02 06:56:03;;;;;;;6.78;1.10;;;11.20;99.90;;;;;;4771112;30;20063;-67
2022/11/02 06:58:29;;;;;;;6.85;1.10;;;11.00;99.90;;;;;;4771829;30;20117;-66
2022/11/02 07:00:59;;;;;;;5.28;1.10;;;11.00;99.90;;;;;;4771303;30;20048;-67
2022/11/02 07:03:26;;;;;;;6.20;1.10;;;11.10;99.90;;;;;;4771251;30;20059;-66
2022/11/02 07:05:53;;;;;;;10.15;1.23;;;11.10;99.90;;;;;;4755341;30;20176;-67
2022/11/02 07:08:19;;;;;;;5.45;1.08;;;11.50;99.90;;;;;;4771423;30;20125;-67
2022/11/02 07:10:45;;;;;;;4.97;1.20;;;11.10;99.90;;;;;;4771032;30;20131;-67
2022/11/02 07:13:11;;;;;;;11.35;1.88;;;11.10;99.90;;;;;;4771071;30;20164;-67
2022/11/02 07:15:37;;;;;;;7.57;2.15;;;11.10;99.90;;;;;;4755106;30;20056;-66
2022/11/02 07:18:04;;;;;;;7.85;1.75;;;11.10;99.90;;;;;;4771002;30;20107;-67
2022/11/02 07:20:31;;;;;;;9.80;2.25;;;11.20;99.90;;;;;;4770339;30;20101;-67
2022/11/02 07:22:59;;;;;;;8.73;2.13;;;11.30;99.90;;;;;;4770893;30;20197;-66
2022/11/02 07:25:26;;;;;;;8.13;1.40;;;11.20;99.90;;;;;;4755093;30;20112;-67
2022/11/02 07:27:52;;;;;;;9.27;1.70;;;11.30;99.90;;;;;;4770823;30;20051;-67
2022/11/02 07:30:19;;;;;;;4.68;1.08;;;11.20;99.90;;;;;;4740405;30;20072;-67
2022/11/02 07:32:45;;;;;;;5.22;1.00;;;11.20;99.90;;;;;;4770789;30;20051;-71
2022/11/02 07:35:12;;;;;;;6.40;1.15;;;11.10;99.90;;;;;;4770791;30;20455;-67
2022/11/02 07:37:39;;;;;;;6.72;0.93;;;11.10;99.90;;;;;;4770703;30;20051;-67
2022/11/02 07:40:06;;;;;;;6.32;1.23;;;11.20;99.90;;;;;;4770705;30;20052;-66
2022/11/02 07:42:31;;;;;;;6.68;1.00;;;11.20;99.90;;;;;;4770627;30;20052;-67
2022/11/02 07:44:57;;;;;;;6.32;1.10;;;11.30;99.90;;;;;;4771226;30;20052;-66
2022/11/02 07:47:23;;;;;;;5.72;0.82;;;11.30;99.90;;;;;;4770886;30;20135;-67
2022/11/02 07:49:49;;;;;;;5.88;1.10;;;11.30;99.90;;;;;;4770618;30;20501;-67
2022/11/02 07:52:14;;;;;;;9.13;1.10;;;11.20;99.90;;;;;;4770977;30;20043;-68
2022/11/02 07:54:40;;;;;;;6.38;1.02;;;11.30;99.90;;;;;;4770623;30;20091;-66
2022/11/02 07:57:06;;;;;;;7.18;1.15;;;11.30;99.90;;;;;;4770510;30;20078;-68
2022/11/02 07:59:31;;;;;;;5.53;1.00;;;11.20;99.90;;;;;;4754851;30;20277;-67
2022/11/02 08:01:57;;;;;;;7.65;0.93;;;11.60;99.90;;;;;;4770545;30;20476;-66
2022/11/02 08:04:23;;;;;;;7.03;1.00;;;11.20;99.90;;;;;;4770579;30;20087;-67
2022/11/02 08:06:48;;;;;;;5.25;0.82;;;11.20;99.90;;;;;;4754608;30;20059;-66
2022/11/02 08:09:14;;;;;;;5.82;1.05;;;11.30;99.90;;;;;;4770444;30;20409;-66
2022/11/02 08:11:40;;;;;;;4.28;1.10;;;11.20;99.90;;;;;;4754585;30;20052;-67
2022/11/02 08:14:06;;;;;;;3.85;0.60;;;11.20;99.90;;;;;;4754788;30;20051;-67
2022/11/02 08:16:32;;;;;;;6.20;0.88;;;11.20;99.90;;;;;;4770392;30;20143;-67
2022/11/02 08:18:58;;;;;;;7.25;0.75;;;11.30;99.90;;;;;;4754644;30;20085;-67
2022/11/02 08:21:25;;;;;;;6.85;0.93;;;11.40;99.90;;;;;;4770322;30;20146;-67
2022/11/02 08:23:51;;;;;;;3.75;0.70;;;11.20;99.90;;;;;;4770342;30;20044;-66
2022/11/02 08:26:16;;;;;;;4.85;0.70;;;11.40;99.90;;;;;;4770950;30;20078;-68
2022/11/02 08:28:42;;;;;;;3.08;0.65;;;11.50;99.90;;;;;;4755030;30;20083;-67
2022/11/02 08:31:14;;;;;;;6.65;1.08;;;11.50;99.90;;;;;;4770937;30;20047;-68
2022/11/02 08:33:43;;;;;;;5.37;0.60;;;11.40;99.90;;;;;;4758490;30;20130;-67
2022/11/02 08:36:09;;;;;;;4.68;0.70;;;11.30;99.90;;;;;;4758679;30;20056;-67
2022/11/02 08:38:36;;;;;;;4.38;0.70;;;11.30;99.90;;;;;;4758139;30;20158;-68
2022/11/02 08:41:02;;;;;;;3.72;0.70;;;11.30;99.90;;;;;;4757909;30;20455;-67
2022/11/02 08:43:28;;;;;;;3.72;0.70;;;11.40;99.90;;;;;;4757789;30;20060;-66
2022/11/02 08:45:57;;;;;;;3.88;0.70;;;11.50;99.90;;;;;;4773811;30;20416;-67
2022/11/02 08:48:23;;;;;;;4.97;0.85;;;11.40;99.90;;;;;;4758660;30;20525;-66
2022/11/02 08:50:49;;;;;;;6.60;0.70;;;11.40;99.90;;;;;;4757658;30;20059;-66
2022/11/02 08:53:15;;;;;;;6.70;1.20;;;11.40;99.90;;;;;;4757859;30;20441;-66
2022/11/02 08:55:40;;;;;;;6.68;0.57;;;11.50;99.90;;;;;;4774057;30;20058;-65
2022/11/02 08:58:06;;;;;;;2.03;0.60;;;11.60;99.90;;;;;;4758095;30;20127;-65
2022/11/02 09:00:33;;;;;;;3.80;0.60;;;11.50;99.90;;;;;;4757831;30;20047;-66
2022/11/02 09:03:04;;;;;;;3.35;0.60;;;11.50;99.90;;;;;;4773409;30;20059;-67
2022/11/02 09:05:32;;;;;;;3.92;0.60;;;11.50;99.90;;;;;;4773302;30;20051;-66
2022/11/02 09:08:00;;;;;;;4.05;1.00;;;11.50;99.90;;;;;;4773327;30;20089;-66
2022/11/02 09:10:28;;;;;;;6.00;1.10;;;11.50;99.90;;;;;;4773692;30;20108;-66
2022/11/02 09:12:54;;;;;;;5.63;0.93;;;11.60;99.90;;;;;;4773254;30;20052;-67
2022/11/02 09:15:20;;;;;;;6.25;1.00;;;11.60;99.90;;;;;;4773160;30;20146;-66
2022/11/02 09:17:47;;;;;;;5.70;1.13;;;11.90;99.90;;;;;;4773729;30;20166;-66
2022/11/02 09:20:15;;;;;;;6.38;1.30;;;11.70;99.90;;;;;;4757380;30;20055;-65
2022/11/02 09:22:40;;;;;;;6.53;1.10;;;11.80;99.90;;;;;;4773182;30;20066;-66
2022/11/02 09:25:07;;;;;;;5.13;0.80;;;11.80;99.90;;;;;;4757072;30;20055;-66
2022/11/02 09:27:32;;;;;;;4.22;0.60;;;11.80;99.90;;;;;;4757262;30;20393;-66
2022/11/02 09:29:58;;;;;;;3.55;1.15;;;11.80;99.90;;;;;;4773282;30;20066;-67
2022/11/02 09:32:24;;;;;;;3.22;0.70;;;11.90;99.90;;;;;;4773551;30;20044;-66
2022/11/02 09:34:50;;;;;;;2.90;0.80;;;11.90;99.90;;;;;;4773615;30;20055;-66
2022/11/02 09:37:16;;;;;;;7.35;0.65;;;11.90;99.90;;;;;;4757040;30;20071;-68
2022/11/02 09:39:42;;;;;;;4.18;0.50;;;12.00;99.90;;;;;;4773347;30;20055;-69
2022/11/02 09:42:30;;;;;;;5.70;0.57;;;12.00;99.90;;;;;;4772638;30;20083;-68
2022/11/02 09:45:11;;;;;;;4.72;0.93;;;12.10;99.90;;;;;;4772834;30;20059;-67
2022/11/02 09:47:47;;;;;;;6.50;0.60;;;12.00;99.90;;;;;;4772446;30;20569;-68
2022/11/02 09:50:27;;;;;;;4.45;0.60;;;12.00;99.90;;;;;;4772964;30;20056;-67
2022/11/02 09:52:58;;;;;;;3.83;0.60;;;12.00;99.90;;;;;;4772595;30;20056;-69
2022/11/02 09:55:30;;;;;;;4.90;0.65;;;12.10;99.90;;;;;;4742360;30;20059;-67
2022/11/02 09:58:13;;;;;;;4.65;0.50;;;12.00;99.90;;;;;;4772581;30;20059;-67
2022/11/02 10:00:40;;;;;;;3.63;0.98;;;11.90;99.90;;;;;;4772550;30;20048;-68
2022/11/02 10:03:12;;;;;;;6.30;0.80;;;12.00;99.90;;;;;;4772417;30;20059;-67
2022/11/02 10:06:05;;;;;;;2.85;0.70;;;12.00;99.90;;;;;;4755981;30;20055;-67
2022/11/02 10:08:41;;;;;;;5.82;0.68;;;12.10;99.90;;;;;;4746834;30;20206;-68
2022/11/02 10:11:33;;;;;;;4.95;0.50;;;12.10;99.90;;;;;;4772191;30;20098;-68
2022/11/02 10:14:09;;;;;;;3.95;0.45;;;12.20;99.90;;;;;;4773028;30;20058;-69
2022/11/02 10:16:51;;;;;;;6.20;1.17;;;12.20;99.90;;;;;;4772652;30;20052;-68
2022/11/02 10:19:19;;;;;;;5.50;0.60;;;12.30;99.90;;;;;;4772949;30;20386;-67
2022/11/02 10:21:48;;;;;;;4.32;0.70;;;12.40;99.90;;;;;;4771644;30;20477;-67
2022/11/02 10:24:14;;;;;;;4.03;0.88;;;12.50;99.90;;;;;;4772418;30;20121;-68
2022/11/02 10:26:42;;;;;;;5.18;0.77;;;12.40;99.90;;;;;;4771738;30;20425;-66
2022/11/02 10:29:32;;;;;;;3.15;0.60;;;12.50;99.90;;;;;;4756118;30;20063;-66
2022/11/02 10:31:58;;;;;;;7.53;0.60;;;12.70;99.90;;;;;;4771824;30;20097;-69
2022/11/02 10:34:26;;;;;;;3.97;0.40;;;12.80;99.90;;;;;;4771800;30;20048;-65
2022/11/02 10:36:57;;;;;;;3.72;0.63;;;13.10;99.90;;;;;;4756019;30;20083;-66
2022/11/02 10:39:29;;;;;;;5.63;0.75;;;12.90;99.90;;;;;;4771707;30;20463;-66
2022/11/02 10:42:19;;;;;;;5.03;0.70;;;13.10;99.90;;;;;;4772200;30;20056;-67
2022/11/02 10:44:53;;;;;;;5.70;0.65;;;13.10;99.90;;;;;;4756057;30;20477;-66
2022/11/02 10:47:22;;;;;;;6.50;0.70;;;13.10;99.90;;;;;;4772005;30;20067;-67
2022/11/02 10:50:16;;;;;;;7.47;0.70;;;13.10;99.90;;;;;;4771352;30;20527;-67
2022/11/02 10:52:43;;;;;;;;;;;13.20;99.90;;;;;;4772136;30;20557;-67
2022/11/02 10:55:36;;;;;;;4.80;0.60;;;13.20;99.90;;;;;;4770980;30;20437;-66
2022/11/02 10:58:05;;;;;;;5.07;0.60;;;13.20;99.90;;;;;;4719940;30;20545;-66
2022/11/02 11:00:34;;;;;;;5.60;0.63;;;13.20;99.90;;;;;;4771802;30;20047;-67
2022/11/02 11:03:03;;;;;;;5.72;0.50;;;13.30;99.90;;;;;;4770960;30;20093;-67
2022/11/02 11:05:30;;;;;;;2.45;0.43;;;13.20;99.90;;;;;;4755767;30;20056;-65
2022/11/02 11:07:56;;;;;;;4.00;0.70;;;13.30;99.90;;;;;;4755445;30;20095;-67
2022/11/02 11:10:23;;;;;;;4.78;0.50;;;13.20;99.90;;;;;;4771013;30;20086;-66
2022/11/02 11:12:49;;;;;;;5.38;0.55;;;13.30;99.90;;;;;;4771212;30;20059;-66
2022/11/02 11:15:26;;;;;;;7.47;1.25;;;13.20;99.90;;;;;;4754724;30;20493;-66
2022/11/02 11:17:51;;;;;;;4.00;0.73;;;13.10;99.90;;;;;;4770911;30;20516;-67
2022/11/02 11:20:37;;;;;;;4.10;0.60;;;13.20;99.90;;;;;;4754921;30;20056;-67
2022/11/02 11:23:29;;;;;;;3.97;0.57;;;13.20;99.90;;;;;;4755687;30;20397;-67
2022/11/02 11:26:04;;;;;;;4.78;0.70;;;13.20;99.90;;;;;;4767382;30;20568;-67
2022/11/02 11:28:39;;;;;;;5.50;0.70;;;13.20;99.90;;;;;;4770930;30;20060;-66
2022/11/02 11:31:11;;;;;;;4.18;0.50;;;13.30;99.90;;;;;;4771226;30;20497;-66
2022/11/02 11:33:44;;;;;;;3.58;0.52;;;13.30;99.90;;;;;;4771776;30;20052;-66
2022/11/02 11:36:19;;;;;;;3.13;0.60;;;13.30;99.90;;;;;;4755511;30;20117;-66
2022/11/02 11:38:46;;;;;;;8.77;1.02;;;13.30;99.90;;;;;;4771871;30;20117;-66
2022/11/02 11:41:12;;;;;;;4.05;0.60;;;13.20;99.90;;;;;;4770877;30;20063;-65
2022/11/02 11:43:39;;;;;;;4.28;0.63;;;13.30;99.90;;;;;;4754885;30;20488;-67
2022/11/02 11:46:07;;;;;;;7.28;0.50;;;13.30;99.90;;;;;;4755001;30;20051;-67
2022/11/02 11:48:53;;;;;;;5.43;0.85;;;13.10;99.90;;;;;;4771215;30;20091;-66
2022/11/02 11:51:37;;;;;;;5.25;1.00;;;13.30;99.90;;;;;;4754525;30;20104;-66
2022/11/02 11:54:13;;;;;;;2.72;0.40;;;13.30;99.90;;;;;;4771235;30;20059;-67
2022/11/02 11:56:39;;;;;;;4.65;0.73;;;13.20;99.90;;;;;;4770547;30;20156;-66
2022/11/02 11:59:21;;;;;;;7.38;0.63;;;13.30;99.90;;;;;;4754643;30;20083;-66
2022/11/02 12:01:48;;;;;;;3.33;0.57;;;13.30;99.90;;;;;;4739755;30;20056;-66
2022/11/02 12:04:29;;;;;;;5.78;0.80;;;13.20;99.90;;;;;;4770669;30;20044;-66
2022/11/02 12:07:33;;;;;;;5.03;0.60;;;13.10;99.90;;;;;;4756215;30;20072;-66
2022/11/02 12:10:33;;;;;;;4.15;0.55;;;13.10;99.90;;;;;;4702205;30;20144;-67
2022/11/02 12:13:25;;;;;;;2.50;0.32;;;13.20;99.90;;;;;;4758658;30;20071;-67
2022/11/02 12:16:12;;;;;;;4.65;0.55;;;13.20;99.90;;;;;;4774125;30;20064;-66
2022/11/02 12:18:54;;;;;;;4.07;0.50;;;13.20;99.90;;;;;;4774650;30;20055;-67
2022/11/02 12:21:34;;;;;;;3.92;0.45;;;13.30;99.90;;;;;;4774170;30;20064;-67
2022/11/02 12:24:03;;;;;;;3.53;0.50;;;13.30;99.90;;;;;;4774729;30;20059;-68
2022/11/02 12:26:34;;;;;;;3.95;0.38;;;13.40;99.90;;;;;;4773967;30;20059;-67
2022/11/02 12:29:20;;;;;;;5.78;0.50;;;13.40;99.90;;;;;;4774305;30;20060;-66
2022/11/02 12:32:04;;;;;;;2.85;0.45;;;13.40;99.90;;;;;;4773868;30;20477;-66
2022/11/02 12:34:48;;;;;;;2.05;0.45;;;13.30;99.90;;;;;;4774710;30;20051;-65
2022/11/02 12:37:22;;;;;;;6.15;0.40;;;13.40;99.90;;;;;;4773806;30;20047;-66
2022/11/02 12:40:00;;;;;;;4.50;0.40;;;13.40;99.90;;;;;;4773911;30;20382;-66
2022/11/02 12:42:26;;;;;;;6.32;0.43;;;13.60;99.90;;;;;;4773588;30;20052;-65
2022/11/02 12:45:27;;;;;;;3.40;0.40;;;13.60;99.90;;;;;;4773607;30;20138;-66
2022/11/02 12:48:01;;;;;;;4.28;0.60;;;13.50;99.90;;;;;;4719635;30;20064;-65
2022/11/02 12:50:35;;;;;;;3.47;0.40;;;13.60;99.90;;;;;;4773428;30;20069;-65
2022/11/02 12:53:23;;;;;;;3.33;0.57;;;13.50;99.90;;;;;;4757623;30;20062;-65
2022/11/02 12:55:54;;;;;;;4.70;0.55;;;13.50;99.90;;;;;;4757483;30;20063;-66
2022/11/02 12:58:26;;;;;;;2.20;0.40;;;13.40;99.90;;;;;;4773747;30;20052;-66
2022/11/02 13:00:57;;;;;;;2.92;0.60;;;13.50;99.90;;;;;;4773457;30;20055;-66
2022/11/02 13:03:33;;;;;;;5.60;0.95;;;13.50;99.90;;;;;;4773330;30;20090;-66
2022/11/02 13:06:05;;;;;;;5.03;0.65;;;13.60;99.90;;;;;;4773473;30;20051;-68
2022/11/02 13:08:37;;;;;;;2.53;0.40;;;13.80;99.90;;;;;;4773721;30;20063;-65
2022/11/02 13:11:10;;;;;;;4.70;0.63;;;13.60;99.90;;;;;;4773085;30;20094;-64
2022/11/02 13:13:42;;;;;;;2.88;0.40;;;13.70;99.90;;;;;;4773223;30;20087;-65
2022/11/02 13:16:10;;;;;;;2.67;0.60;;;13.60;99.90;;;;;;4757636;30;20059;-65
2022/11/02 13:18:46;;;;;;;5.68;0.40;;;13.60;99.90;;;;;;4756579;30;20059;-66